createdAt,value
2022-10-13T00:01:21.111Z,72.76
2022-10-13T00:03:50.274Z,73.00
2022-10-13T00:06:24.649Z,72.72
2022-10-13T00:08:55.607Z,72.67
2022-10-13T00:11:27.248Z,72.47
2022-10-13T00:13:58.872Z,72.63
2022-10-13T00:16:31.544Z,73.13
2022-10-13T00:18:59.962Z,72.85
2022-10-13T00:21:30.203Z,72.21
2022-10-13T00:23:59.659Z,72.51
2022-10-13T00:26:28.240Z,72.17
2022-10-13T00:28:57.367Z,72.30
2022-10-13T00:31:51.850Z,72.02
2022-10-13T00:34:23.063Z,71.53
2022-10-13T00:36:51.080Z,71.89
2022-10-13T00:39:20.618Z,72.43
2022-10-13T00:41:48.643Z,72.56
2022-10-13T00:45:03.790Z,71.78
2022-10-13T00:47:38.278Z,71.70
2022-10-13T00:50:11.267Z,71.75
2022-10-13T00:52:42.472Z,71.20
2022-10-13T00:55:18.493Z,70.84
2022-10-13T00:57:54.572Z,71.35
2022-10-13T01:00:44.621Z,71.52
2022-10-13T01:03:26.296Z,72.12
2022-10-13T01:06:07.842Z,71.81
2022-10-13T01:08:37.087Z,71.53
2022-10-13T01:11:54.477Z,70.91
2022-10-13T01:14:45.783Z,71.06
2022-10-13T01:17:32.615Z,71.55
2022-10-13T01:20:57.900Z,71.67
2022-10-13T01:24:10.036Z,72.16
2022-10-13T01:27:29.978Z,72.39
2022-10-13T01:30:09.008Z,72.46
2022-10-13T01:33:04.414Z,72.24
2022-10-13T01:35:52.796Z,72.02
2022-10-13T01:38:34.382Z,72.38
2022-10-13T01:41:12.865Z,72.09
2022-10-13T01:43:48.573Z,72.27
2022-10-13T01:46:23.905Z,72.03
2022-10-13T01:48:56.003Z,72.14
2022-10-13T01:51:27.946Z,72.55
2022-10-13T01:53:56.089Z,72.39
2022-10-13T01:56:24.291Z,72.62
2022-10-13T02:02:57.962Z,72.33
2022-10-13T02:05:35.800Z,72.94
2022-10-13T02:08:08.547Z,72.49
2022-10-13T02:10:45.739Z,72.45
2022-10-13T02:13:18.771Z,72.29
2022-10-13T02:15:50.973Z,72.55
2022-10-13T02:18:26.919Z,72.38
2022-10-13T02:20:56.150Z,72.88
2022-10-13T02:23:24.910Z,72.87
2022-10-13T02:25:52.932Z,72.50
2022-10-13T02:28:21.377Z,72.44
2022-10-13T02:30:49.428Z,72.29
2022-10-13T02:33:18.172Z,72.20
2022-10-13T02:35:47.696Z,72.40
2022-10-13T02:38:15.878Z,72.45
2022-10-13T02:40:43.937Z,72.46
2022-10-13T02:43:11.976Z,72.76
2022-10-13T02:45:40.004Z,72.81
2022-10-13T02:48:08.146Z,73.11
2022-10-13T02:51:00.240Z,73.68
2022-10-13T02:53:29.610Z,73.48
2022-10-13T02:56:02.246Z,73.35
2022-10-13T02:58:57.324Z,73.35
2022-10-13T03:01:25.392Z,73.69
2022-10-13T03:03:53.371Z,73.32
2022-10-13T03:06:21.461Z,73.43
2022-10-13T03:08:51.233Z,73.25
2022-10-13T03:11:19.289Z,73.47
2022-10-13T03:13:47.307Z,73.41
2022-10-13T03:16:15.396Z,73.37
2022-10-13T03:18:43.467Z,73.53
2022-10-13T03:21:11.922Z,73.48
2022-10-13T03:23:40.588Z,73.73
2022-10-13T03:26:10.006Z,73.45
2022-10-13T03:28:38.119Z,73.33
2022-10-13T03:31:11.353Z,73.43
2022-10-13T03:33:40.499Z,73.31
2022-10-13T03:36:09.107Z,72.54
2022-10-13T03:38:37.395Z,73.25
2022-10-13T03:41:12.038Z,73.11
2022-10-13T03:43:41.164Z,73.00
2022-10-13T03:46:11.088Z,72.69
2022-10-13T03:48:39.386Z,72.89
2022-10-13T03:51:08.690Z,72.99
2022-10-13T03:53:37.420Z,73.09
2022-10-13T03:56:07.814Z,72.83
2022-10-13T03:58:42.691Z,72.63
2022-10-13T04:01:13.643Z,72.89
2022-10-13T04:03:43.607Z,72.65
2022-10-13T04:06:11.798Z,72.79
2022-10-13T04:08:40.042Z,72.57
2022-10-13T04:11:12.519Z,72.52
2022-10-13T04:13:44.338Z,72.26
2022-10-13T04:16:19.214Z,72.11
2022-10-13T04:18:52.665Z,71.74
2022-10-13T04:21:20.866Z,71.56
2022-10-13T04:23:49.212Z,71.40
2022-10-13T04:26:19.414Z,71.71
2022-10-13T04:28:51.170Z,71.80
2022-10-13T04:31:21.916Z,71.72
2022-10-13T04:33:50.451Z,71.69
2022-10-13T04:36:19.668Z,71.93
2022-10-13T04:38:51.807Z,71.90
2022-10-13T04:41:20.953Z,71.06
2022-10-13T04:43:51.211Z,71.63
2022-10-13T04:46:22.039Z,71.54
2022-10-13T04:48:51.448Z,71.60
2022-10-13T04:51:24.639Z,72.02
2022-10-13T04:53:56.569Z,72.11
2022-10-13T04:56:25.186Z,71.72
2022-10-13T04:58:54.902Z,71.86
2022-10-13T05:01:25.420Z,71.77
2022-10-13T05:03:54.838Z,72.50
2022-10-13T05:06:24.996Z,72.66
2022-10-13T05:08:57.484Z,72.99
2022-10-13T05:11:26.757Z,72.96
2022-10-13T05:13:57.379Z,72.94
2022-10-13T05:16:26.410Z,72.92
2022-10-13T05:18:56.158Z,72.93
2022-10-13T05:21:27.127Z,72.95
2022-10-13T05:23:56.442Z,73.14
2022-10-13T05:26:28.768Z,72.79
2022-10-13T05:28:58.829Z,73.04
2022-10-13T05:31:34.976Z,73.20
2022-10-13T05:34:03.906Z,73.17
2022-10-13T05:36:34.959Z,73.26
2022-10-13T05:39:07.367Z,73.13
2022-10-13T05:41:35.489Z,73.05
2022-10-13T05:44:10.177Z,73.01
2022-10-13T05:46:43.470Z,73.38
2022-10-13T05:49:11.880Z,73.38
2022-10-13T05:51:44.453Z,73.17
2022-10-13T05:54:19.988Z,73.28
2022-10-13T05:56:53.748Z,73.09
2022-10-13T05:59:27.242Z,73.43
2022-10-13T06:01:56.085Z,73.28
2022-10-13T06:04:32.730Z,72.85
2022-10-13T06:07:00.996Z,73.24
2022-10-13T06:09:35.664Z,73.28
2022-10-13T06:12:03.708Z,73.06
2022-10-13T06:14:33.137Z,72.89
2022-10-13T06:17:03.136Z,73.07
2022-10-13T06:19:31.227Z,72.93
2022-10-13T06:22:07.575Z,73.02
2022-10-13T06:24:35.736Z,73.09
2022-10-13T06:27:05.629Z,73.18
2022-10-13T06:29:35.165Z,72.90
2022-10-13T06:32:03.280Z,73.02
2022-10-13T06:34:31.438Z,73.04
2022-10-13T06:36:59.463Z,72.92
2022-10-13T06:39:27.551Z,73.04
2022-10-13T06:41:55.771Z,73.07
2022-10-13T06:44:31.971Z,73.16
2022-10-13T06:47:10.500Z,73.08
2022-10-13T06:49:41.255Z,73.24
2022-10-13T06:52:13.291Z,72.94
2022-10-13T06:54:41.871Z,72.76
2022-10-13T06:57:12.309Z,73.30
2022-10-13T06:59:40.411Z,73.05
2022-10-13T07:02:11.231Z,73.15
2022-10-13T07:04:39.287Z,73.35
2022-10-13T07:07:07.377Z,73.33
2022-10-13T07:09:35.456Z,73.11
2022-10-13T07:12:04.758Z,73.27
2022-10-13T07:14:32.754Z,73.27
2022-10-13T07:17:01.003Z,73.38
2022-10-13T07:19:30.400Z,73.17
2022-10-13T07:21:58.782Z,73.35
2022-10-13T07:24:27.687Z,73.67
2022-10-13T07:26:55.744Z,73.46
2022-10-13T07:29:23.896Z,73.19
2022-10-13T07:31:52.054Z,73.23
2022-10-13T07:34:20.062Z,73.15
2022-10-13T07:36:49.419Z,73.59
2022-10-13T07:39:17.503Z,73.42
2022-10-13T07:41:50.184Z,73.08
2022-10-13T07:44:19.342Z,73.38
2022-10-13T07:46:47.462Z,73.17
2022-10-13T07:49:16.453Z,73.10
2022-10-13T07:51:44.878Z,72.86
2022-10-13T07:54:14.779Z,73.03
2022-10-13T07:56:42.888Z,73.04
2022-10-13T07:59:11.920Z,72.91
2022-10-13T08:01:40.907Z,73.00
2022-10-13T08:04:09.138Z,72.63
2022-10-13T08:06:37.432Z,72.59
2022-10-13T08:09:10.400Z,73.21
2022-10-13T08:11:39.907Z,72.78
2022-10-13T08:14:08.009Z,72.76
2022-10-13T08:16:36.034Z,72.60
2022-10-13T08:19:04.163Z,72.70
2022-10-13T08:24:22.416Z,72.36
2022-10-13T08:26:52.008Z,72.81
2022-10-13T08:29:23.087Z,72.87
2022-10-13T08:31:53.567Z,72.85
2022-10-13T08:34:23.099Z,72.15
2022-10-13T08:36:54.223Z,72.02
2022-10-13T08:39:25.500Z,71.83
2022-10-13T08:41:57.679Z,72.01
2022-10-13T08:47:37.140Z,71.59
2022-10-13T08:50:13.550Z,71.37
2022-10-13T08:52:49.399Z,71.31
2022-10-13T08:55:26.279Z,71.03
2022-10-13T08:57:56.254Z,71.42
2022-10-13T09:00:27.868Z,71.40
2022-10-13T09:03:09.115Z,71.29
2022-10-13T09:05:47.847Z,71.08
2022-10-13T09:08:20.511Z,71.12
2022-10-13T09:10:50.827Z,71.64
2022-10-13T09:13:27.192Z,71.68
2022-10-13T09:15:56.406Z,71.56
2022-10-13T09:18:31.778Z,70.68
2022-10-13T09:21:21.077Z,70.55
2022-10-13T09:23:53.980Z,70.63
2022-10-13T09:26:25.231Z,70.50
2022-10-13T09:28:54.703Z,70.41
2022-10-13T09:31:27.969Z,70.14
2022-10-13T09:34:02.788Z,70.36
2022-10-13T09:36:31.678Z,70.34
2022-10-13T09:39:12.552Z,70.36
2022-10-13T09:41:42.661Z,71.36
2022-10-13T09:44:15.612Z,70.86
2022-10-13T09:46:51.585Z,70.71
2022-10-13T09:49:37.351Z,70.78
2022-10-13T09:52:19.077Z,70.83
2022-10-13T09:54:51.014Z,70.68
2022-10-13T09:57:29.187Z,70.57
2022-10-13T10:00:13.296Z,70.16
2022-10-13T10:02:50.468Z,70.13
2022-10-13T10:05:26.679Z,70.14
2022-10-13T10:08:05.135Z,70.15
2022-10-13T10:10:37.965Z,69.79
2022-10-13T10:13:12.130Z,69.65
2022-10-13T10:15:54.012Z,69.49
2022-10-13T10:18:32.769Z,69.09
2022-10-13T10:21:08.016Z,69.14
2022-10-13T10:23:47.294Z,69.13
2022-10-13T10:26:26.684Z,69.09
2022-10-13T10:29:18.496Z,69.15
2022-10-13T10:32:05.443Z,69.23
2022-10-13T10:34:41.713Z,69.48
2022-10-13T10:37:21.401Z,69.22
2022-10-13T10:40:04.614Z,69.81
2022-10-13T10:43:04.074Z,69.88
2022-10-13T10:45:38.362Z,69.96
2022-10-13T10:48:19.146Z,70.05
2022-10-13T10:50:48.320Z,70.13
2022-10-13T10:53:30.115Z,69.84
2022-10-13T10:56:09.088Z,69.49
2022-10-13T10:58:45.247Z,69.42
2022-10-13T11:01:33.708Z,69.32
2022-10-13T11:04:42.734Z,69.18
2022-10-13T11:07:32.438Z,69.25
2022-10-13T11:10:18.943Z,68.74
2022-10-13T11:13:22.158Z,68.62
2022-10-13T11:15:50.440Z,68.57
2022-10-13T11:18:59.179Z,68.43
2022-10-13T11:22:14.135Z,68.21
2022-10-13T11:25:44.686Z,67.39
2022-10-13T11:28:47.356Z,67.67
2022-10-13T11:31:33.618Z,67.67
2022-10-13T11:34:04.586Z,68.52
2022-10-13T11:36:58.498Z,67.77
2022-10-13T11:39:59.259Z,67.29
2022-10-13T11:43:21.771Z,68.93
2022-10-13T11:46:15.830Z,68.12
2022-10-13T11:49:28.491Z,66.93
2022-10-13T11:52:14.691Z,65.02
2022-10-13T11:54:51.345Z,65.39
2022-10-13T11:57:22.745Z,64.66
2022-10-13T11:59:55.285Z,64.43
2022-10-13T12:02:29.693Z,65.05
2022-10-13T12:05:05.026Z,64.44
2022-10-13T12:07:42.915Z,63.92
2022-10-13T12:10:21.878Z,63.90
2022-10-13T12:12:51.287Z,63.98
2022-10-13T12:15:36.325Z,63.29
2022-10-13T12:18:20.059Z,63.42
2022-10-13T12:20:54.368Z,63.49
2022-10-13T12:23:23.928Z,63.20
2022-10-13T12:25:57.762Z,63.72
2022-10-13T12:28:29.279Z,63.92
2022-10-13T12:30:59.411Z,63.13
2022-10-13T12:33:32.535Z,63.11
2022-10-13T12:36:18.024Z,62.72
2022-10-13T12:38:52.288Z,63.19
2022-10-13T12:41:27.362Z,62.82
2022-10-13T12:43:57.643Z,62.45
2022-10-13T12:46:41.933Z,61.88
2022-10-13T12:49:16.960Z,62.16
2022-10-13T12:51:49.297Z,61.88
2022-10-13T12:54:25.331Z,61.48
2022-10-13T12:56:57.791Z,62.11
2022-10-13T12:59:28.391Z,61.97
2022-10-13T13:02:00.788Z,61.83
2022-10-13T13:04:42.665Z,61.94
2022-10-13T13:07:30.598Z,62.46
2022-10-13T13:10:17.377Z,62.30
2022-10-13T13:12:46.523Z,62.21
2022-10-13T13:15:33.811Z,62.40
2022-10-13T13:18:31.385Z,62.15
2022-10-13T13:21:01.790Z,61.97
2022-10-13T13:23:34.165Z,61.96
2022-10-13T13:26:14.088Z,62.12
2022-10-13T13:28:46.912Z,61.77
2022-10-13T13:31:16.388Z,61.72
2022-10-13T13:33:44.740Z,61.58
2022-10-13T13:36:17.930Z,61.55
2022-10-13T13:38:47.978Z,61.74
2022-10-13T13:41:19.964Z,61.93
2022-10-13T13:43:48.143Z,62.75
2022-10-13T13:46:19.452Z,62.88
2022-10-13T13:48:47.737Z,63.55
2022-10-13T13:51:16.808Z,64.34
2022-10-13T13:53:45.606Z,64.34
2022-10-13T13:56:15.331Z,64.59
2022-10-13T13:58:45.080Z,64.37
2022-10-13T14:01:13.977Z,64.41
2022-10-13T14:03:42.306Z,64.86
2022-10-13T14:06:21.335Z,65.33
2022-10-13T14:08:49.990Z,65.97
2022-10-13T14:11:18.315Z,66.98
2022-10-13T14:13:47.732Z,67.24
2022-10-13T14:16:26.966Z,68.22
2022-10-13T14:18:56.983Z,69.57
2022-10-13T14:21:26.661Z,70.07
2022-10-13T14:23:58.188Z,70.13
2022-10-13T14:26:26.516Z,69.86
2022-10-13T14:28:56.050Z,70.36
2022-10-13T14:31:24.067Z,70.57
2022-10-13T14:33:54.273Z,71.00
2022-10-13T14:36:25.300Z,71.41
2022-10-13T14:38:54.785Z,71.80
2022-10-13T14:41:23.015Z,71.49
2022-10-13T14:43:55.613Z,71.59
2022-10-13T14:46:24.191Z,71.75
2022-10-13T14:48:52.633Z,72.24
2022-10-13T14:51:20.976Z,71.17
2022-10-13T14:53:49.156Z,71.12
2022-10-13T14:56:20.931Z,70.92
2022-10-13T14:58:57.480Z,71.71
2022-10-13T15:01:30.715Z,71.41
2022-10-13T15:03:58.803Z,71.57
2022-10-13T15:06:28.355Z,71.57
2022-10-13T15:08:57.105Z,72.35
2022-10-13T15:11:27.156Z,72.10
2022-10-13T15:13:56.709Z,71.83
2022-10-13T15:16:28.959Z,71.63
2022-10-13T15:18:57.762Z,71.65
2022-10-13T15:21:26.278Z,71.99
2022-10-13T15:23:54.310Z,72.39
2022-10-13T15:26:22.720Z,72.37
2022-10-13T15:28:53.597Z,72.76
2022-10-13T15:31:24.387Z,72.42
2022-10-13T15:33:54.827Z,72.70
2022-10-13T15:36:25.573Z,72.82
2022-10-13T15:38:53.687Z,72.71
2022-10-13T15:41:24.006Z,73.30
2022-10-13T15:43:52.295Z,73.22
2022-10-13T15:46:26.175Z,73.11
2022-10-13T15:48:55.616Z,73.15
2022-10-13T15:51:26.992Z,73.33
2022-10-13T15:53:56.009Z,73.11
2022-10-13T15:56:24.619Z,72.47
2022-10-13T15:58:52.654Z,72.24
2022-10-13T16:01:22.130Z,72.50
2022-10-13T16:03:54.304Z,72.36
2022-10-13T16:06:22.430Z,72.36
2022-10-13T16:08:50.446Z,72.78
2022-10-13T16:11:22.348Z,73.11
2022-10-13T16:13:53.308Z,73.41
2022-10-13T16:16:27.944Z,73.43
2022-10-13T16:18:56.036Z,73.37
2022-10-13T16:21:26.852Z,73.26
2022-10-13T16:23:55.375Z,73.41
2022-10-13T16:26:24.940Z,73.80
2022-10-13T16:28:56.765Z,73.85
2022-10-13T16:31:26.223Z,74.08
2022-10-13T16:33:55.411Z,74.00
2022-10-13T16:36:25.091Z,73.88
2022-10-13T16:38:55.239Z,73.81
2022-10-13T16:41:23.667Z,74.54
2022-10-13T16:43:51.947Z,74.53
2022-10-13T16:46:21.536Z,73.81
2022-10-13T16:48:50.929Z,73.85
2022-10-13T16:51:22.310Z,73.48
2022-10-13T16:53:51.494Z,73.64
2022-10-13T16:56:22.107Z,74.15
2022-10-13T16:58:50.970Z,73.57
2022-10-13T17:01:19.307Z,74.02
2022-10-13T17:03:50.575Z,73.91
2022-10-13T17:06:21.419Z,73.95
2022-10-13T17:08:56.000Z,74.84
2022-10-13T17:11:26.926Z,74.78
2022-10-13T17:13:57.405Z,75.23
2022-10-13T17:16:26.135Z,75.13
2022-10-13T17:18:55.846Z,74.48
2022-10-13T17:21:26.433Z,74.62
2022-10-13T17:23:56.522Z,74.33
2022-10-13T17:26:24.802Z,74.50
2022-10-13T17:28:52.967Z,74.44
2022-10-13T17:31:24.371Z,74.35
2022-10-13T17:33:53.488Z,74.27
2022-10-13T17:36:25.725Z,74.11
2022-10-13T17:38:56.096Z,74.28
2022-10-13T17:41:25.494Z,74.28
2022-10-13T17:43:53.906Z,74.05
2022-10-13T17:46:36.347Z,74.52
2022-10-13T17:49:06.005Z,74.24
2022-10-13T17:51:36.127Z,74.21
2022-10-13T17:54:05.043Z,74.25
2022-10-13T17:56:33.531Z,74.10
2022-10-13T17:59:02.849Z,74.07
2022-10-13T18:01:33.449Z,74.51
2022-10-13T18:04:03.923Z,74.23
2022-10-13T18:06:39.873Z,74.52
2022-10-13T18:09:10.699Z,74.42
2022-10-13T18:11:39.570Z,74.67
2022-10-13T18:14:09.139Z,74.63
2022-10-13T18:16:42.564Z,74.76
2022-10-13T18:19:14.032Z,74.70
2022-10-13T18:21:43.578Z,74.58
2022-10-13T18:24:12.392Z,74.64
2022-10-13T18:26:40.901Z,74.89
2022-10-13T18:29:12.615Z,74.89
2022-10-13T18:31:47.864Z,75.00
2022-10-13T18:34:18.680Z,74.92
2022-10-13T18:36:51.235Z,74.94
2022-10-13T18:39:22.520Z,74.99
2022-10-13T18:41:51.505Z,75.71
2022-10-13T18:44:20.663Z,74.96
2022-10-13T18:46:51.298Z,75.05
2022-10-13T18:49:22.897Z,75.55
2022-10-13T18:51:52.983Z,74.97
2022-10-13T18:54:21.063Z,74.86
2022-10-13T18:56:49.789Z,75.05
2022-10-13T18:59:17.927Z,74.70
2022-10-13T19:01:46.222Z,74.93
2022-10-13T19:04:16.727Z,75.06
2022-10-13T19:06:44.994Z,74.73
2022-10-13T19:09:17.226Z,74.72
2022-10-13T19:11:46.107Z,74.96
2022-10-13T19:14:17.622Z,74.75
2022-10-13T19:16:46.140Z,74.38
2022-10-13T19:19:14.545Z,74.63
2022-10-13T19:21:42.901Z,74.49
2022-10-13T19:24:12.479Z,74.47
2022-10-13T19:26:42.247Z,74.49
2022-10-13T19:29:12.425Z,74.67
2022-10-13T19:31:42.338Z,74.64
2022-10-13T19:34:11.872Z,74.52
2022-10-13T19:36:42.811Z,74.42
2022-10-13T19:39:16.643Z,74.63
2022-10-13T19:41:48.163Z,74.35
2022-10-13T19:44:18.087Z,74.46
2022-10-13T19:46:47.793Z,74.17
2022-10-13T19:49:19.134Z,74.28
2022-10-13T19:51:49.015Z,74.26
2022-10-13T19:54:19.666Z,74.43
2022-10-13T19:56:50.474Z,74.50
2022-10-13T19:59:21.207Z,74.11
2022-10-13T20:01:49.282Z,74.22
2022-10-13T20:04:20.450Z,74.72
2022-10-13T20:06:49.909Z,74.89
2022-10-13T20:09:18.324Z,74.24
2022-10-13T20:11:48.771Z,73.95
2022-10-13T20:14:17.852Z,73.85
2022-10-13T20:16:46.348Z,73.10
2022-10-13T20:19:19.301Z,72.99
2022-10-13T20:21:51.436Z,72.98
2022-10-13T20:24:20.470Z,73.16
2022-10-13T20:26:50.532Z,73.25
2022-10-13T20:29:23.243Z,73.18
2022-10-13T20:31:51.560Z,73.91
2022-10-13T20:34:19.710Z,73.77
2022-10-13T20:36:50.106Z,74.50
2022-10-13T20:39:18.248Z,74.20
2022-10-13T20:41:46.263Z,74.06
2022-10-13T20:44:16.591Z,74.07
2022-10-13T20:46:44.706Z,73.87
2022-10-13T20:49:13.559Z,73.88
2022-10-13T20:51:43.181Z,74.09
2022-10-13T20:54:12.595Z,73.93
2022-10-13T20:56:41.178Z,74.78
2022-10-13T20:59:12.035Z,74.55
2022-10-13T21:01:42.174Z,75.14
2022-10-13T21:04:11.216Z,74.89
2022-10-13T21:06:39.297Z,74.83
2022-10-13T21:09:07.635Z,74.88
2022-10-13T21:11:37.083Z,74.49
2022-10-13T21:14:06.881Z,74.23
2022-10-13T21:16:36.292Z,74.15
2022-10-13T21:19:08.525Z,74.23
2022-10-13T21:21:38.861Z,74.36
2022-10-13T21:24:09.447Z,74.05
2022-10-13T21:26:38.291Z,73.99
2022-10-13T21:29:06.728Z,73.54
2022-10-13T21:31:35.242Z,73.33
2022-10-13T21:34:03.309Z,73.06
2022-10-13T21:36:33.862Z,73.23
2022-10-13T21:39:05.001Z,72.84
2022-10-13T21:41:34.392Z,72.85
2022-10-13T21:44:02.744Z,72.99
2022-10-13T21:46:34.132Z,72.88
2022-10-13T21:49:06.014Z,73.00
2022-10-13T21:51:39.019Z,73.22
2022-10-13T21:54:09.919Z,73.33
2022-10-13T21:56:39.022Z,73.44
2022-10-13T21:59:08.003Z,73.46
2022-10-13T22:01:36.485Z,73.51
2022-10-13T22:04:12.621Z,73.47
2022-10-13T22:06:42.049Z,73.47
2022-10-13T22:09:10.600Z,73.48
2022-10-13T22:11:39.896Z,73.75
2022-10-13T22:14:14.605Z,73.43
2022-10-13T22:16:45.412Z,73.22
2022-10-13T22:19:14.467Z,73.24
2022-10-13T22:21:46.863Z,73.19
2022-10-13T22:24:17.524Z,73.52
2022-10-13T22:26:46.790Z,73.44
2022-10-13T22:29:19.108Z,73.28
2022-10-13T22:31:48.688Z,73.20
2022-10-13T22:34:17.475Z,73.45
2022-10-13T22:36:46.961Z,73.35
2022-10-13T22:39:16.153Z,73.25
2022-10-13T22:41:44.876Z,73.45
2022-10-13T22:44:13.396Z,73.79
2022-10-13T22:46:41.963Z,73.38
2022-10-13T22:49:14.609Z,73.44
2022-10-13T22:51:42.675Z,73.85
2022-10-13T22:54:13.199Z,73.76
2022-10-13T22:56:42.204Z,73.10
2022-10-13T22:59:11.939Z,73.45
2022-10-13T23:01:39.983Z,73.62
2022-10-13T23:04:08.279Z,73.58
2022-10-13T23:06:37.086Z,73.48
2022-10-13T23:09:09.180Z,73.24
2022-10-13T23:11:39.112Z,73.14
2022-10-13T23:14:09.337Z,73.17
2022-10-13T23:16:37.578Z,72.94
2022-10-13T23:19:05.790Z,72.79
2022-10-13T23:21:34.099Z,73.01
2022-10-13T23:24:04.850Z,73.02
2022-10-13T23:26:34.643Z,72.78
2022-10-13T23:29:04.622Z,73.06
2022-10-13T23:31:33.404Z,73.07
2022-10-13T23:34:01.427Z,72.81
2022-10-13T23:36:32.156Z,72.49
2022-10-13T23:39:03.047Z,72.91
2022-10-13T23:41:31.678Z,73.02
2022-10-13T23:43:59.966Z,73.12
2022-10-13T23:46:29.547Z,72.94
2022-10-13T23:48:57.815Z,73.31
2022-10-13T23:51:27.352Z,73.30
2022-10-13T23:53:56.388Z,73.28
2022-10-13T23:56:24.565Z,73.14
2022-10-13T23:58:52.626Z,73.06
